Terminal Aerodrome Forecast
Issued by NWS Springfield, MO

Home | Current Version | Previous Version | Text Only | Print | Product List | Glossary On
Versions: 1 2 3 4 5 6 7 8 9 10 11 12 13 14 15 16 17 18 19 20 21 22
000
FTUS43 KSGF 261129
TAFSGF
TAF
KSGF 261129Z 2612/2712 16012KT P6SM BKN200
     FM262000 21007KT P6SM BKN030
     FM270300 16005KT P6SM BKN030
     FM270800 VRB03KT 4SM BR BKN008=

USA.gov is the U.S. government's official web portal to all federal, state and local government web resources and services.